FDX122 LOWW-LTFM
Flight info
| Callsign | FDX122 |
|---|---|
| Flight time | N/A |
| Altitude | 35000 |
| Route | ADAMA Z648 VEDER L140 ALAMU DCT EPARI DCT TEGRI DCT SODGO DCT NULGO DCT TIMUR DCT XANEX L606 GASRU DCT RILEX |
| Aircraft | B738/M-SDE2E3FGHIRWXY/LB1 |
Departure
| Time | 2026-04-26 07:11 |
|---|---|
| Airport | Vienna International Airport (LOWW) |
Arrival
| Time | N/A |
|---|---|
| Airport | İstanbul Airport (LTFM) |
| Time | Latitude | Longitude | Altitude | Speed | Heading |
|---|---|---|---|---|---|
| 2026-04-26 06:51 | 48.12329 | 16.57193 | 600 ft | 0 kts | 26° |
| 2026-04-26 06:58 | 48.12328 | 16.57193 | 600 ft | 0 kts | 26° |
| 2026-04-26 07:02 | 48.12328 | 16.57192 | 600 ft | 0 kts | 26° |
| 2026-04-26 07:03 | 48.12326 | 16.57191 | 600 ft | 2 kts | 26° |
| 2026-04-26 07:04 | 48.12313 | 16.57181 | 600 ft | 2 kts | 27° |
| 2026-04-26 07:04 | 48.12298 | 16.57168 | 600 ft | 2 kts | 42° |
| 2026-04-26 07:04 | 48.12287 | 16.57149 | 599 ft | 2 kts | 63° |
| 2026-04-26 07:04 | 48.12282 | 16.57126 | 599 ft | 2 kts | 84° |
| 2026-04-26 07:05 | 48.12282 | 16.57101 | 599 ft | 2 kts | 105° |
| 2026-04-26 07:05 | 48.12283 | 16.57094 | 598 ft | 0 kts | 111° |
| 2026-04-26 07:05 | 48.12284 | 16.57094 | 598 ft | 0 kts | 111° |
| 2026-04-26 07:06 | 48.12281 | 16.57100 | 598 ft | 5 kts | 117° |
| 2026-04-26 07:06 | 48.12243 | 16.57181 | 600 ft | 10 kts | 126° |
| 2026-04-26 07:06 | 48.12171 | 16.57302 | 602 ft | 20 kts | 144° |
| 2026-04-26 07:06 | 48.12012 | 16.57385 | 608 ft | 26 kts | 164° |
| 2026-04-26 07:07 | 48.11840 | 16.57457 | 609 ft | 25 kts | 164° |
| 2026-04-26 07:07 | 48.11682 | 16.57524 | 611 ft | 23 kts | 164° |
| 2026-04-26 07:07 | 48.11530 | 16.57589 | 623 ft | 22 kts | 164° |
| 2026-04-26 07:07 | 48.11351 | 16.57663 | 610 ft | 33 kts | 165° |
| 2026-04-26 07:08 | 48.11107 | 16.57767 | 608 ft | 39 kts | 164° |
| 2026-04-26 07:08 | 48.10851 | 16.57878 | 613 ft | 37 kts | 165° |
| 2026-04-26 07:08 | 48.10612 | 16.57978 | 609 ft | 35 kts | 164° |
| 2026-04-26 07:08 | 48.10373 | 16.58078 | 620 ft | 37 kts | 164° |
| 2026-04-26 07:09 | 48.10119 | 16.58186 | 617 ft | 38 kts | 164° |
| 2026-04-26 07:09 | 48.09867 | 16.58291 | 619 ft | 36 kts | 164° |
| 2026-04-26 07:09 | 48.09622 | 16.58396 | 613 ft | 39 kts | 164° |
| 2026-04-26 07:09 | 48.09353 | 16.58507 | 600 ft | 41 kts | 164° |
| 2026-04-26 07:10 | 48.08818 | 16.59022 | 594 ft | 28 kts | 51° |
| 2026-04-26 07:11 | 48.09399 | 16.58907 | 597 ft | 94 kts | 344° |
| 2026-04-26 07:11 | 48.10227 | 16.58557 | 642 ft | 148 kts | 346° |
| 2026-04-26 07:11 | 48.11221 | 16.58110 | 1371 ft | 150 kts | 342° |
| 2026-04-26 07:11 | 48.12174 | 16.57731 | 2415 ft | 141 kts | 353° |
| 2026-04-26 07:12 | 48.13196 | 16.58100 | 2961 ft | 173 kts | 26° |
| 2026-04-26 07:12 | 48.13984 | 16.59707 | 3205 ft | 214 kts | 64° |
| 2026-04-26 07:12 | 48.14454 | 16.61947 | 3612 ft | 233 kts | 66° |
| 2026-04-26 07:12 | 48.14965 | 16.64371 | 3979 ft | 257 kts | 66° |
| 2026-04-26 07:13 | 48.15521 | 16.66994 | 4691 ft | 269 kts | 65° |
| 2026-04-26 07:13 | 48.16097 | 16.69695 | 5502 ft | 277 kts | 65° |
| 2026-04-26 07:13 | 48.16539 | 16.72574 | 6214 ft | 297 kts | 83° |
| 2026-04-26 07:13 | 48.16081 | 16.75673 | 6950 ft | 316 kts | 116° |
| 2026-04-26 07:14 | 48.14663 | 16.78194 | 7796 ft | 319 kts | 136° |
| 2026-04-26 07:14 | 48.13397 | 16.80930 | 8498 ft | 324 kts | 108° |
| 2026-04-26 07:14 | 48.12700 | 16.84136 | 9316 ft | 326 kts | 104° |
| 2026-04-26 07:14 | 48.11972 | 16.87329 | 10086 ft | 333 kts | 110° |
| 2026-04-26 07:15 | 48.10646 | 16.90265 | 10490 ft | 354 kts | 134° |
| 2026-04-26 07:15 | 48.08767 | 16.92908 | 10689 ft | 378 kts | 138° |
| 2026-04-26 07:15 | 48.06794 | 16.95598 | 10932 ft | 398 kts | 137° |
| 2026-04-26 07:15 | 48.04750 | 16.98456 | 11513 ft | 405 kts | 136° |
| 2026-04-26 07:16 | 48.02733 | 17.01415 | 12287 ft | 407 kts | 130° |
| 2026-04-26 07:16 | 48.01259 | 17.04995 | 13051 ft | 405 kts | 109° |
| 2026-04-26 07:16 | 48.00596 | 17.09048 | 13813 ft | 400 kts | 92° |
| 2026-04-26 07:16 | 48.00299 | 17.13208 | 14478 ft | 403 kts | 91° |
| 2026-04-26 07:17 | 48.00031 | 17.17400 | 15099 ft | 407 kts | 91° |
| 2026-04-26 07:17 | 47.99748 | 17.21631 | 15741 ft | 411 kts | 91° |
| 2026-04-26 07:17 | 47.99442 | 17.25838 | 16373 ft | 414 kts | 92° |
| 2026-04-26 07:17 | 47.99114 | 17.30130 | 17003 ft | 418 kts | 92° |
| 2026-04-26 07:18 | 47.98753 | 17.34451 | 17614 ft | 423 kts | 96° |
| 2026-04-26 07:18 | 47.97999 | 17.38745 | 18203 ft | 431 kts | 104° |
| 2026-04-26 07:18 | 47.97037 | 17.43021 | 18774 ft | 435 kts | 106° |
| 2026-04-26 07:18 | 47.96029 | 17.47293 | 19311 ft | 438 kts | 106° |
| 2026-04-26 07:19 | 47.95022 | 17.51587 | 19845 ft | 440 kts | 105° |
| 2026-04-26 07:19 | 47.94025 | 17.55920 | 20376 ft | 443 kts | 105° |
| 2026-04-26 07:19 | 47.93039 | 17.60290 | 20895 ft | 445 kts | 105° |
| 2026-04-26 07:19 | 47.92058 | 17.64692 | 21401 ft | 448 kts | 105° |
| 2026-04-26 07:20 | 47.91076 | 17.69118 | 21898 ft | 451 kts | 104° |
| 2026-04-26 07:20 | 47.90088 | 17.73570 | 22401 ft | 454 kts | 105° |
| 2026-04-26 07:20 | 47.89093 | 17.78047 | 22882 ft | 457 kts | 105° |
| 2026-04-26 07:20 | 47.88088 | 17.82550 | 23356 ft | 459 kts | 105° |
| 2026-04-26 07:21 | 47.87076 | 17.87078 | 23804 ft | 462 kts | 105° |
| 2026-04-26 07:21 | 47.86055 | 17.91634 | 24191 ft | 464 kts | 105° |
| 2026-04-26 07:21 | 47.85027 | 17.96205 | 24582 ft | 467 kts | 105° |
| 2026-04-26 07:21 | 47.83905 | 18.00695 | 24951 ft | 471 kts | 110° |
| 2026-04-26 07:22 | 47.82552 | 18.05146 | 25334 ft | 474 kts | 112° |
| 2026-04-26 07:22 | 47.81117 | 18.09591 | 25707 ft | 476 kts | 113° |
| 2026-04-26 07:22 | 47.79670 | 18.14045 | 26071 ft | 478 kts | 113° |
| 2026-04-26 07:22 | 47.78239 | 18.18519 | 26422 ft | 480 kts | 112° |
| 2026-04-26 07:23 | 47.76824 | 18.23019 | 26757 ft | 482 kts | 112° |
| 2026-04-26 07:23 | 47.75405 | 18.27554 | 27093 ft | 484 kts | 112° |
| 2026-04-26 07:23 | 47.74127 | 18.32175 | 27399 ft | 484 kts | 105° |
| 2026-04-26 07:23 | 47.73283 | 18.37015 | 27722 ft | 481 kts | 95° |
| 2026-04-26 07:24 | 47.72880 | 18.41881 | 28057 ft | 481 kts | 92° |
| 2026-04-26 07:24 | 47.72542 | 18.46836 | 28367 ft | 483 kts | 91° |
| 2026-04-26 07:24 | 47.72206 | 18.51814 | 28657 ft | 485 kts | 92° |
| 2026-04-26 07:24 | 47.71853 | 18.56811 | 28937 ft | 488 kts | 92° |
| 2026-04-26 07:25 | 47.71477 | 18.61835 | 29222 ft | 490 kts | 92° |
| 2026-04-26 07:25 | 47.71086 | 18.66865 | 29518 ft | 492 kts | 92° |
| 2026-04-26 07:25 | 47.70685 | 18.71913 | 29894 ft | 491 kts | 92° |
| 2026-04-26 07:25 | 47.70282 | 18.76943 | 30315 ft | 490 kts | 92° |
| 2026-04-26 07:26 | 47.69881 | 18.81945 | 30686 ft | 488 kts | 92° |
| 2026-04-26 07:26 | 47.69480 | 18.86943 | 31004 ft | 488 kts | 92° |
| 2026-04-26 07:26 | 47.68996 | 18.91944 | 31264 ft | 491 kts | 99° |
| 2026-04-26 07:26 | 47.67928 | 18.96791 | 31518 ft | 498 kts | 111° |
| 2026-04-26 07:27 | 47.66256 | 19.01299 | 31811 ft | 501 kts | 123° |
| 2026-04-26 07:27 | 47.64068 | 19.05244 | 32128 ft | 502 kts | 132° |
| 2026-04-26 07:27 | 47.61646 | 19.08970 | 32456 ft | 501 kts | 133° |
| 2026-04-26 07:27 | 47.59191 | 19.12655 | 32725 ft | 502 kts | 133° |
| 2026-04-26 07:28 | 47.56736 | 19.16329 | 32993 ft | 502 kts | 133° |
| 2026-04-26 07:28 | 47.54291 | 19.20012 | 33304 ft | 501 kts | 133° |
| 2026-04-26 07:28 | 47.52679 | 19.22458 | 33520 ft | 500 kts | 133° |
| 2026-04-26 07:28 | 47.50258 | 19.26155 | 33830 ft | 499 kts | 133° |
| 2026-04-26 07:29 | 47.47849 | 19.29852 | 34114 ft | 499 kts | 132° |
| 2026-04-26 07:29 | 47.45443 | 19.33550 | 34371 ft | 498 kts | 132° |
| 2026-04-26 07:29 | 47.43041 | 19.37244 | 34607 ft | 498 kts | 133° |
| 2026-04-26 07:29 | 47.40642 | 19.40927 | 34840 ft | 497 kts | 133° |
| 2026-04-26 07:30 | 47.38237 | 19.44613 | 34884 ft | 500 kts | 133° |
| 2026-04-26 07:30 | 47.33412 | 19.51988 | 34884 ft | 498 kts | 133° |
| 2026-04-26 07:31 | 47.28607 | 19.59304 | 34876 ft | 495 kts | 133° |
| 2026-04-26 07:31 | 47.23821 | 19.66573 | 34863 ft | 493 kts | 133° |
| 2026-04-26 07:32 | 47.19078 | 19.73758 | 34863 ft | 491 kts | 133° |
| 2026-04-26 07:32 | 47.14311 | 19.80959 | 34861 ft | 491 kts | 133° |
| 2026-04-26 07:33 | 47.09543 | 19.88143 | 34863 ft | 491 kts | 133° |
| 2026-04-26 07:33 | 47.04766 | 19.95319 | 34861 ft | 492 kts | 133° |
| 2026-04-26 07:34 | 46.99974 | 20.02500 | 34843 ft | 493 kts | 133° |
| 2026-04-26 07:34 | 46.95196 | 20.09639 | 34841 ft | 494 kts | 133° |
| 2026-04-26 07:35 | 46.90372 | 20.16828 | 34844 ft | 495 kts | 134° |
| 2026-04-26 07:35 | 46.85536 | 20.24015 | 34846 ft | 496 kts | 134° |
| 2026-04-26 07:36 | 46.80688 | 20.31200 | 34839 ft | 496 kts | 134° |
| 2026-04-26 07:36 | 46.75870 | 20.38320 | 34866 ft | 494 kts | 134° |
| 2026-04-26 07:37 | 46.71065 | 20.45402 | 34996 ft | 491 kts | 134° |
| 2026-04-26 07:37 | 46.66231 | 20.52510 | 35004 ft | 494 kts | 134° |
| 2026-04-26 07:38 | 46.61374 | 20.59631 | 35003 ft | 497 kts | 134° |
| 2026-04-26 07:38 | 46.56497 | 20.66762 | 35000 ft | 498 kts | 134° |
| 2026-04-26 07:39 | 46.51615 | 20.73881 | 34997 ft | 497 kts | 134° |
| 2026-04-26 07:39 | 46.46757 | 20.80945 | 34995 ft | 495 kts | 134° |
| 2026-04-26 07:40 | 46.41903 | 20.87987 | 34992 ft | 492 kts | 134° |
| 2026-04-26 07:40 | 46.37068 | 20.94982 | 35001 ft | 490 kts | 134° |
| 2026-04-26 07:41 | 46.32248 | 21.01939 | 35012 ft | 487 kts | 134° |
| 2026-04-26 07:41 | 46.27446 | 21.08851 | 35009 ft | 485 kts | 134° |
| 2026-04-26 07:42 | 46.22576 | 21.15503 | 35018 ft | 484 kts | 137° |
| 2026-04-26 07:42 | 46.17532 | 21.21922 | 35023 ft | 482 kts | 138° |
| 2026-04-26 07:43 | 46.12496 | 21.28295 | 35019 ft | 481 kts | 138° |
| 2026-04-26 07:43 | 46.07488 | 21.34678 | 35018 ft | 480 kts | 138° |
| 2026-04-26 07:44 | 46.02489 | 21.41068 | 35011 ft | 480 kts | 138° |
| 2026-04-26 07:44 | 45.97491 | 21.47448 | 35016 ft | 480 kts | 138° |
| 2026-04-26 07:45 | 45.92511 | 21.53785 | 35014 ft | 481 kts | 138° |
| 2026-04-26 07:45 | 45.87493 | 21.60154 | 35015 ft | 482 kts | 138° |
| 2026-04-26 07:46 | 45.82459 | 21.66526 | 35018 ft | 482 kts | 138° |
| 2026-04-26 07:46 | 45.77414 | 21.72896 | 35009 ft | 483 kts | 138° |
| 2026-04-26 07:47 | 45.72366 | 21.79254 | 35017 ft | 483 kts | 138° |
| 2026-04-26 07:47 | 45.67309 | 21.85607 | 35013 ft | 484 kts | 138° |
| 2026-04-26 07:48 | 45.62239 | 21.91960 | 35013 ft | 484 kts | 138° |
| 2026-04-26 07:48 | 45.57199 | 21.98261 | 35016 ft | 484 kts | 138° |
| 2026-04-26 07:49 | 45.52119 | 22.04596 | 35014 ft | 484 kts | 138° |
| 2026-04-26 07:49 | 45.47038 | 22.10915 | 35014 ft | 484 kts | 139° |
| 2026-04-26 07:50 | 45.39422 | 22.20360 | 35008 ft | 483 kts | 139° |
| 2026-04-26 07:50 | 45.34381 | 22.26591 | 35008 ft | 483 kts | 139° |
| 2026-04-26 07:51 | 45.29307 | 22.32848 | 35006 ft | 482 kts | 139° |
| 2026-04-26 07:51 | 45.24234 | 22.39089 | 34998 ft | 482 kts | 139° |
| 2026-04-26 07:52 | 45.19168 | 22.45305 | 34995 ft | 482 kts | 139° |
| 2026-04-26 07:52 | 45.14098 | 22.51513 | 34996 ft | 481 kts | 139° |
| 2026-04-26 07:53 | 45.09014 | 22.57721 | 34984 ft | 482 kts | 139° |
| 2026-04-26 07:53 | 45.03975 | 22.63860 | 34981 ft | 481 kts | 139° |
| 2026-04-26 07:54 | 44.98888 | 22.70043 | 34972 ft | 482 kts | 140° |
| 2026-04-26 07:54 | 44.93799 | 22.76213 | 34977 ft | 482 kts | 140° |
| 2026-04-26 07:55 | 44.88711 | 22.82370 | 34967 ft | 482 kts | 140° |
| 2026-04-26 07:55 | 44.83536 | 22.88375 | 34963 ft | 482 kts | 143° |
| 2026-04-26 07:56 | 44.78187 | 22.94065 | 34971 ft | 481 kts | 144° |
| 2026-04-26 07:56 | 44.72864 | 22.99669 | 34974 ft | 480 kts | 144° |
| 2026-04-26 07:57 | 44.67537 | 23.05325 | 34973 ft | 479 kts | 144° |
| 2026-04-26 07:57 | 44.62226 | 23.10986 | 34975 ft | 479 kts | 144° |
| 2026-04-26 07:58 | 44.56921 | 23.16633 | 34978 ft | 478 kts | 144° |
| 2026-04-26 07:58 | 44.51617 | 23.22264 | 34982 ft | 478 kts | 145° |
| 2026-04-26 07:59 | 44.46299 | 23.27894 | 34976 ft | 479 kts | 145° |
| 2026-04-26 07:59 | 44.40977 | 23.33515 | 34978 ft | 479 kts | 146° |
| 2026-04-26 08:00 | 44.35646 | 23.39132 | 34983 ft | 480 kts | 146° |
| 2026-04-26 08:00 | 44.30301 | 23.44752 | 34976 ft | 481 kts | 146° |
| 2026-04-26 08:01 | 44.24977 | 23.50336 | 34979 ft | 482 kts | 146° |
| 2026-04-26 08:01 | 44.19590 | 23.55973 | 34974 ft | 484 kts | 146° |
| 2026-04-26 08:02 | 44.14193 | 23.61608 | 34975 ft | 485 kts | 146° |
| 2026-04-26 08:02 | 44.08784 | 23.67245 | 34971 ft | 486 kts | 147° |
| 2026-04-26 08:03 | 44.03454 | 23.73071 | 34968 ft | 490 kts | 139° |
| 2026-04-26 08:03 | 43.98782 | 23.79913 | 34976 ft | 492 kts | 135° |
| 2026-04-26 08:04 | 43.94145 | 23.86916 | 34979 ft | 491 kts | 135° |
| 2026-04-26 08:04 | 43.89481 | 23.93841 | 34979 ft | 490 kts | 136° |
| 2026-04-26 08:05 | 43.84797 | 24.00711 | 34977 ft | 489 kts | 136° |
| 2026-04-26 08:05 | 43.80115 | 24.07552 | 34981 ft | 488 kts | 136° |
| 2026-04-26 08:06 | 43.75472 | 24.14330 | 34983 ft | 487 kts | 136° |
| 2026-04-26 08:06 | 43.70806 | 24.21127 | 34978 ft | 486 kts | 136° |
| 2026-04-26 08:07 | 43.66096 | 24.27824 | 34981 ft | 485 kts | 138° |
| 2026-04-26 08:07 | 43.61212 | 24.34275 | 34978 ft | 484 kts | 139° |
| 2026-04-26 08:08 | 43.56361 | 24.40624 | 34984 ft | 484 kts | 139° |
| 2026-04-26 08:08 | 43.51489 | 24.47052 | 34981 ft | 484 kts | 139° |
| 2026-04-26 08:09 | 43.46630 | 24.53486 | 34982 ft | 484 kts | 139° |
| 2026-04-26 08:09 | 43.41768 | 24.59912 | 34982 ft | 484 kts | 139° |
| 2026-04-26 08:10 | 43.36924 | 24.66296 | 34984 ft | 485 kts | 139° |
| 2026-04-26 08:10 | 43.32047 | 24.72707 | 34983 ft | 485 kts | 139° |
| 2026-04-26 08:11 | 43.27165 | 24.79109 | 34985 ft | 485 kts | 139° |
| 2026-04-26 08:11 | 43.22279 | 24.85504 | 34985 ft | 485 kts | 139° |
| 2026-04-26 08:12 | 43.17426 | 24.91841 | 34987 ft | 485 kts | 139° |
| 2026-04-26 08:12 | 43.12532 | 24.98216 | 34986 ft | 485 kts | 139° |
| 2026-04-26 08:13 | 43.07640 | 25.04578 | 34986 ft | 485 kts | 139° |
| 2026-04-26 08:13 | 43.02748 | 25.10931 | 34983 ft | 484 kts | 139° |
| 2026-04-26 08:14 | 42.97864 | 25.17262 | 34989 ft | 484 kts | 139° |
| 2026-04-26 08:14 | 42.92997 | 25.23555 | 34996 ft | 484 kts | 139° |
| 2026-04-26 08:15 | 42.88100 | 25.29874 | 34989 ft | 485 kts | 139° |
| 2026-04-26 08:15 | 42.83197 | 25.36186 | 34989 ft | 484 kts | 138° |
| 2026-04-26 08:16 | 42.78316 | 25.42454 | 34988 ft | 484 kts | 138° |
| 2026-04-26 08:16 | 42.73416 | 25.48733 | 34986 ft | 484 kts | 138° |
| 2026-04-26 08:17 | 42.68517 | 25.54996 | 34999 ft | 483 kts | 138° |
| 2026-04-26 08:17 | 42.63616 | 25.61248 | 35004 ft | 483 kts | 139° |
| 2026-04-26 08:18 | 42.59539 | 25.66438 | 34999 ft | 483 kts | 138° |
| 2026-04-26 08:18 | 42.54637 | 25.72664 | 34999 ft | 483 kts | 138° |
| 2026-04-26 08:19 | 42.49730 | 25.78884 | 35004 ft | 483 kts | 138° |
| 2026-04-26 08:19 | 42.44817 | 25.85098 | 34998 ft | 483 kts | 138° |
| 2026-04-26 08:20 | 42.39902 | 25.91301 | 35006 ft | 483 kts | 138° |
| 2026-04-26 08:20 | 42.34982 | 25.97495 | 35006 ft | 483 kts | 138° |
| 2026-04-26 08:21 | 42.30093 | 26.03639 | 34999 ft | 483 kts | 138° |
| 2026-04-26 08:21 | 42.25313 | 26.10003 | 34997 ft | 483 kts | 129° |
| 2026-04-26 08:22 | 42.21717 | 26.17644 | 35014 ft | 483 kts | 118° |
| 2026-04-26 08:22 | 42.18484 | 26.25638 | 34453 ft | 490 kts | 118° |
| 2026-04-26 08:23 | 42.16842 | 26.29663 | 33824 ft | 488 kts | 118° |
| 2026-04-26 08:23 | 42.15188 | 26.33668 | 33072 ft | 488 kts | 119° |
| 2026-04-26 08:23 | 42.13527 | 26.37652 | 32400 ft | 487 kts | 119° |
| 2026-04-26 08:23 | 42.11864 | 26.41621 | 31676 ft | 486 kts | 119° |
| 2026-04-26 08:24 | 42.10194 | 26.45592 | 30912 ft | 487 kts | 120° |
| 2026-04-26 08:24 | 42.08519 | 26.49570 | 30116 ft | 488 kts | 120° |
| 2026-04-26 08:24 | 42.06867 | 26.53493 | 29373 ft | 486 kts | 120° |
| 2026-04-26 08:24 | 42.05209 | 26.57425 | 28759 ft | 480 kts | 120° |
| 2026-04-26 08:25 | 42.03567 | 26.61317 | 28189 ft | 474 kts | 120° |
| 2026-04-26 08:25 | 42.01947 | 26.65153 | 27600 ft | 469 kts | 120° |
| 2026-04-26 08:25 | 42.00342 | 26.68948 | 27114 ft | 463 kts | 120° |